Pagrindinis puslapis
METAR-TAF:

METAR-TAF

Oro uostai :

Uagadugu oro uostas

Uagadugu, Burkina Fasas

platuma: 12-21N, ilguma: 001-31W, Aukštis: 316 m

Dabartinis oras

Ataskaita buvo paskelbta 44 minutes, ne 05:00 UTC
Vėjas 1 kt iš Vakarų
Temperatūra 23°C
Drėgmė 100%
Slėgis 1011 hPa
Matomumas 10 km arba daugiau
nėra debesų žemiau 1500 m ir nėra kamuolinių lietaus debesų

METAR: DFFD 180500Z 26001KT CAVOK 23/23 Q1011 NOSIG

Laikas: 05:44 (05:44 UTC)

Prognozė

Ataskaita buvo paskelbta 44 minutes, ne 05:00 UTC
Prognozė galioja nuo 18 metu 06 UTC su 19 metu 12 UTC
Vėjas 8 kt iš Vakarų/Pietvakarių
Matomumas 10 km arba daugiau
Išsisklaidę debesys ne aukštis 2000 ft
Tikimybė 30% :
Laikinai
nuo 18 metu 14 UTC su 18 metu 24 UTC
Matomumas: 4000 m
Išsisklaidę debesys ne aukštis 2000 ft
Išsisklaidę debesys ne aukštis 3300 ft, Liūtiniai kamuoliniai debesys.
perkūnija, lietus

TAF: DFFD 180500Z 1806/1912 24008KT 9999 SCT020 PROB30 TEMPO 1814/1824 4000 TSRA SCT020 SCT033CB

Orai ataskaitas ir orų prognozės (METAR, TAF).

turimą stotys yra geltonos ir raudonos taškus žemėlapyje.

Perkelti pele per norėdami pamatyti stoties vardą.

Tada spustelėkite, norėdami matyti oro stebėjimo ir prognozės.

Norėdami pakeisti žemėlapį: spustelėkite ant žalios mygtukų su juodo kryžiaus žemyn,; žalią mygtuką su brūkšneliu, jei norite nutolinti; arba žalių rodyklių gretimoms žemėlapius.


METAR-TAF: